Погода Лапасна неделю

Астраханская область, Россия

13 - 19 июля
  • 13июля
    Сегодня
    +19°
    +30°
    Ясно и безоблачно
    ВремяПогодаТемператураВлажностьДавлениеВетер, м/сВероятность осадков
    01:00Ясно и безоблачно+21°C33 %757 мм2.9 м/с2 %
    04:00Ясно и безоблачно+19°C38 %757 мм3.6 м/с2 %
    07:00Ясно и безоблачно+21°C33 %757 мм4.8 м/с2 %
    10:00Ясно и безоблачно+25°C22 %757 мм7.6 м/с2 %
    13:00Ясно и безоблачно+28°C17 %756 мм7.6 м/с2 %
    16:00Ясно и безоблачно+30°C13 %755 мм7.1 м/с2 %
    19:00Ясно и безоблачно+29°C13 %755 мм6.1 м/с2 %
    22:00Ясно и безоблачно+24°C22 %755 мм3.1 м/с2 %
  • 14июля
    Воскресенье
    +22°
    +33°
    Пасмурно, сплошная облачность
    ВремяПогодаТемператураВлажностьДавлениеВетер, м/сВероятность осадков
    01:00Ясно и безоблачно+20°C27 %755 мм3.6 м/с2 %
    04:00Ясно и безоблачно+20°C33 %755 мм4.1 м/с2 %
    07:00Ясно и безоблачно+21°C37 %756 мм4.3 м/с2 %
    10:00Ясно и безоблачно+26°C39 %756 мм5.5 м/с2 %
    13:00Пасмурно, сплошная облачность+30°C36 %755 мм6.1 м/с2 %
    16:00Облачно с прояснениями+32°C35 %755 мм5.8 м/с2 %
    19:00Небольшая облачность+32°C32 %754 мм4.9 м/с2 %
    22:00Ясно и безоблачно+26°C42 %755 мм2.0 м/с2 %
  • 15июля
    Понедельник
    +22°
    +36°
    Ясно и безоблачно
    ВремяПогодаТемператураВлажностьДавлениеВетер, м/сВероятность осадков
    01:00Ясно и безоблачно+24°C51 %755 мм2.0 м/с2 %
    04:00Ясно и безоблачно+23°C54 %756 мм2.6 м/с2 %
    07:00Ясно и безоблачно+25°C49 %756 мм2.7 м/с2 %
    10:00Ясно и безоблачно+32°C37 %756 мм4.3 м/с2 %
    13:00Ясно и безоблачно+34°C28 %756 мм3.9 м/с2 %
    16:00Ясно и безоблачно+36°C24 %755 мм4.0 м/с2 %
    19:00Ясно и безоблачно+35°C23 %755 мм4.3 м/с2 %
    22:00Ясно и безоблачно+28°C30 %756 мм3.1 м/с2 %
  • 16июля
    Вторник
    +22°
    +36°
    Ясно и безоблачно
    ВремяПогодаТемператураВлажностьДавлениеВетер, м/сВероятность осадков
    01:00Ясно и безоблачно+25°C37 %756 мм2.2 м/с2 %
    04:00Ясно и безоблачно+23°C43 %756 мм2.2 м/с2 %
    07:00Ясно и безоблачно+26°C43 %757 мм2.3 м/с2 %
    10:00Ясно и безоблачно+33°C28 %757 мм2.9 м/с2 %
    13:00Ясно и безоблачно+35°C23 %757 мм3.2 м/с2 %
    16:00Ясно и безоблачно+36°C21 %756 мм3.3 м/с2 %
    19:00Ясно и безоблачно+35°C21 %756 мм4.8 м/с2 %
    22:00Ясно и безоблачно+29°C28 %757 мм3.7 м/с2 %
  • 17июля
    Среда
    +22°
    +35°
    Ясно и безоблачно
    ВремяПогодаТемператураВлажностьДавлениеВетер, м/сВероятность осадков
    01:00Ясно и безоблачно+25°C36 %757 мм2.5 м/с2 %
    04:00Ясно и безоблачно+23°C45 %757 мм2.1 м/с2 %
    07:00Ясно и безоблачно+25°C45 %758 мм2.4 м/с2 %
    10:00Ясно и безоблачно+32°C32 %758 мм4.3 м/с2 %
    13:00Ясно и безоблачно+34°C27 %758 мм4.2 м/с2 %
    16:00Ясно и безоблачно+35°C21 %757 мм5.1 м/с3 %
    19:00Практически безоблачно+33°C25 %757 мм5.3 м/с4 %
    22:00Ясно и безоблачно+29°C33 %757 мм3.9 м/с2 %
Мы используем cookies
Соглашаюсь